Time;durP1;ratioP1;P1;durP2;ratioP2;P2;SDS_P1;SDS_P2;PMS_P1;PMS_P2;Temp;Humidity;BMP_temperature;BMP_pressure;BME280_temperature;BME280_humidity;BME280_pressure;Samples;Min_cycle;Max_cycle;Signal;HPM_P1;HPM_P2
2023/10/02 00:01:18;;;;;;;12.88;10.48;;;;;;;;;;13106379;22;20852;-84
2023/10/02 00:06:23;;;;;;;14.35;11.05;;;;;;;;;;13106529;22;20390;-83
2023/10/02 00:11:39;;;;;;;13.50;10.40;;;;;;;;;;13106453;22;20371;-84
2023/10/02 00:16:42;;;;;;;13.82;10.80;;;;;;;;;;13106035;22;20669;-83
2023/10/02 00:21:46;;;;;;;13.10;10.15;;;;;;;;;;13106211;22;20401;-83
2023/10/02 00:26:51;;;;;;;14.50;10.20;;;;;;;;;;13105908;22;20457;-83
2023/10/02 00:31:53;;;;;;;11.95;9.93;;;;;;;;;;13127003;22;20676;-83
2023/10/02 00:36:58;;;;;;;13.23;10.27;;;;;;;;;;13105804;22;20363;-83
2023/10/02 00:47:38;;;;;;;14.27;10.87;;;;;;;;;;13128131;22;20370;-83
2023/10/02 00:52:43;;;;;;;14.75;10.80;;;;;;;;;;13106417;22;20371;-83
2023/10/02 00:57:46;;;;;;;12.43;10.85;;;;;;;;;;13105334;22;20463;-83
2023/10/02 01:02:51;;;;;;;15.00;11.33;;;;;;;;;;13106077;22;20927;-83
2023/10/02 01:07:55;;;;;;;15.57;11.70;;;;;;;;;;13109198;22;20449;-83
2023/10/02 01:13:05;;;;;;;14.77;11.32;;;;;;;;;;13109214;22;20730;-83
2023/10/02 01:18:21;;;;;;;13.55;11.77;;;;;;;;;;13109687;22;20367;-83
2023/10/02 01:23:27;;;;;;;15.90;11.25;;;;;;;;;;13109383;22;20379;-84
2023/10/02 01:28:49;;;;;;;15.55;11.82;;;;;;;;;;13129637;22;20351;-83
2023/10/02 01:33:52;;;;;;;15.57;11.13;;;;;;;;;;13130852;22;20405;-82
2023/10/02 01:38:59;;;;;;;15.03;12.13;;;;;;;;;;13107616;22;20363;-82
2023/10/02 01:44:07;;;;;;;17.73;13.25;;;;;;;;;;13130737;22;20696;-83
2023/10/02 01:49:24;;;;;;;17.20;13.37;;;;;;;;;;13109085;22;20660;-82
2023/10/02 01:54:29;;;;;;;18.83;13.57;;;;;;;;;;13109573;22;20363;-83
2023/10/02 01:59:32;;;;;;;18.67;13.30;;;;;;;;;;13130633;22;20432;-83
2023/10/02 02:04:35;;;;;;;17.73;13.40;;;;;;;;;;13108033;22;20398;-83
2023/10/02 02:09:41;;;;;;;17.27;13.80;;;;;;;;;;13108343;22;20359;-83
2023/10/02 02:14:50;;;;;;;18.20;13.45;;;;;;;;;;13108303;22;20421;-84
2023/10/02 02:19:55;;;;;;;15.70;12.45;;;;;;;;;;13107936;22;20367;-84
2023/10/02 02:24:59;;;;;;;17.85;13.40;;;;;;;;;;13108129;22;20379;-83
2023/10/02 02:30:10;;;;;;;17.98;13.05;;;;;;;;;;13108757;22;20359;-82
2023/10/02 02:35:14;;;;;;;17.73;13.55;;;;;;;;;;13107999;22;20359;-83
2023/10/02 02:40:26;;;;;;;17.92;13.77;;;;;;;;;;13108608;22;20393;-84
2023/10/02 02:45:31;;;;;;;15.18;12.52;;;;;;;;;;13129911;22;20401;-84
2023/10/02 02:50:35;;;;;;;17.77;12.70;;;;;;;;;;13109130;22;20661;-84
2023/10/02 02:55:37;;;;;;;17.27;13.13;;;;;;;;;;13107782;22;20355;-82
2023/10/02 03:00:41;;;;;;;17.42;13.05;;;;;;;;;;13107524;22;20428;-83
2023/10/02 03:05:44;;;;;;;15.57;12.80;;;;;;;;;;13129652;22;20691;-82
2023/10/02 03:10:47;;;;;;;16.17;13.10;;;;;;;;;;13108412;22;20428;-82
2023/10/02 03:15:50;;;;;;;17.60;12.77;;;;;;;;;;13107183;22;20424;-83
2023/10/02 03:20:53;;;;;;;15.30;12.20;;;;;;;;;;13106124;22;20428;-83
2023/10/02 03:25:56;;;;;;;16.50;12.80;;;;;;;;;;13106121;22;20404;-83
2023/10/02 03:31:00;;;;;;;17.03;12.23;;;;;;;;;;13106952;22;20912;-82
2023/10/02 03:36:09;;;;;;;14.65;12.15;;;;;;;;;;13107249;22;20366;-83
2023/10/02 03:41:13;;;;;;;15.32;11.98;;;;;;;;;;13106657;22;20356;-83
2023/10/02 03:46:22;;;;;;;16.47;12.33;;;;;;;;;;13105748;22;20412;-83
2023/10/02 03:51:36;;;;;;;18.50;12.77;;;;;;;;;;13105531;22;20742;-83
2023/10/02 03:56:42;;;;;;;17.30;12.93;;;;;;;;;;13108334;22;20422;-82
2023/10/02 04:01:47;;;;;;;16.23;12.18;;;;;;;;;;13104150;22;20476;-82
2023/10/02 04:06:53;;;;;;;15.63;12.18;;;;;;;;;;13104671;22;20371;-83
2023/10/02 04:11:56;;;;;;;15.13;12.20;;;;;;;;;;13105311;22;20363;-83
2023/10/02 04:17:10;;;;;;;15.63;12.52;;;;;;;;;;13106297;22;20725;-84
2023/10/02 04:22:23;;;;;;;16.35;12.13;;;;;;;;;;13108259;22;20367;-85
2023/10/02 04:27:27;;;;;;;17.20;11.75;;;;;;;;;;13108263;22;20382;-85
2023/10/02 04:32:32;;;;;;;17.53;12.50;;;;;;;;;;13110058;22;20443;-85
2023/10/02 04:37:36;;;;;;;17.60;12.68;;;;;;;;;;13133162;22;20769;-85
2023/10/02 04:48:00;;;;;;;16.92;12.23;;;;;;;;;;13111012;22;20387;-84
2023/10/02 04:53:19;;;;;;;14.93;10.95;;;;;;;;;;13113068;22;20400;-85
2023/10/02 04:58:27;;;;;;;15.77;11.25;;;;;;;;;;13111753;22;20867;-85
2023/10/02 05:03:31;;;;;;;14.05;11.25;;;;;;;;;;13111440;22;20371;-86
2023/10/02 05:08:40;;;;;;;14.63;11.60;;;;;;;;;;13110855;22;20359;-85
2023/10/02 05:13:59;;;;;;;16.55;11.60;;;;;;;;;;13107455;22;20363;-85
2023/10/02 05:19:05;;;;;;;17.90;11.85;;;;;;;;;;13111926;22;20819;-86
2023/10/02 05:24:11;;;;;;;15.63;10.68;;;;;;;;;;13163863;22;20672;-86
2023/10/02 05:29:17;;;;;;;16.33;10.90;;;;;;;;;;13111536;22;20360;-86
2023/10/02 05:34:22;;;;;;;16.60;11.23;;;;;;;;;;13129265;22;20691;-86
2023/10/02 05:39:39;;;;;;;19.35;11.10;;;;;;;;;;13111096;22;20363;-85
2023/10/02 05:44:42;;;;;;;15.50;11.43;;;;;;;;;;13132987;22;20831;-86
2023/10/02 05:49:48;;;;;;;15.30;11.43;;;;;;;;;;13113138;22;20562;-88
2023/10/02 05:54:53;;;;;;;17.58;11.25;;;;;;;;;;13112085;22;20846;-88
2023/10/02 05:59:57;;;;;;;17.20;10.83;;;;;;;;;;13112034;22;20363;-87
2023/10/02 06:05:11;;;;;;;17.85;10.23;;;;;;;;;;13112402;22;20408;-88
2023/10/02 06:10:26;;;;;;;15.77;11.15;;;;;;;;;;13112984;22;20893;-88
2023/10/02 06:20:58;;;;;;;13.00;9.57;;;;;;;;;;13112844;22;20371;-89
2023/10/02 06:26:00;;;;;;;16.08;9.52;;;;;;;;;;13114847;22;20448;-89
2023/10/02 06:31:06;;;;;;;13.23;9.20;;;;;;;;;;13114565;22;20359;-90
2023/10/02 06:36:10;;;;;;;15.45;9.40;;;;;;;;;;13115453;22;20888;-89
2023/10/02 06:41:15;;;;;;;12.40;8.97;;;;;;;;;;13125217;22;20416;-89
2023/10/02 06:46:19;;;;;;;13.25;9.50;;;;;;;;;;13114269;22;20375;-89
2023/10/02 06:51:23;;;;;;;12.17;9.10;;;;;;;;;;13114191;22;20363;-89
2023/10/02 06:56:29;;;;;;;10.88;8.63;;;;;;;;;;13113035;22;20424;-89
2023/10/02 07:01:32;;;;;;;15.80;9.47;;;;;;;;;;13114657;22;20893;-89
2023/10/02 07:06:38;;;;;;;15.32;9.63;;;;;;;;;;13113355;22;20375;-90
2023/10/02 07:11:42;;;;;;;14.83;10.33;;;;;;;;;;13115597;22;20364;-89
2023/10/02 07:16:47;;;;;;;16.17;10.13;;;;;;;;;;13114623;22;20363;-89
2023/10/02 07:21:51;;;;;;;17.08;10.18;;;;;;;;;;13112993;22;20359;-89
2023/10/02 07:26:54;;;;;;;13.23;9.60;;;;;;;;;;13113843;22;20428;-89
2023/10/02 07:31:57;;;;;;;13.68;9.90;;;;;;;;;;13113014;22;20389;-89
2023/10/02 07:37:05;;;;;;;16.88;11.07;;;;;;;;;;13113144;22;20424;-89
2023/10/02 07:42:10;;;;;;;15.20;10.30;;;;;;;;;;13115259;22;20396;-89
2023/10/02 07:47:18;;;;;;;14.50;10.67;;;;;;;;;;13135250;22;20375;-89
2023/10/02 07:52:35;;;;;;;15.13;11.10;;;;;;;;;;13115778;22;20393;-89
2023/10/02 07:57:38;;;;;;;16.00;12.13;;;;;;;;;;13112313;22;20406;-89
2023/10/02 08:02:40;;;;;;;17.23;13.80;;;;;;;;;;13114266;22;20359;-89
2023/10/02 08:07:45;;;;;;;19.37;14.37;;;;;;;;;;13112023;22;20715;-85
2023/10/02 08:12:55;;;;;;;19.92;13.90;;;;;;;;;;13113204;22;20834;-89
2023/10/02 08:18:16;;;;;;;19.37;14.50;;;;;;;;;;13112990;22;20363;-90
2023/10/02 08:23:23;;;;;;;18.33;14.57;;;;;;;;;;13112777;22;20359;-90
2023/10/02 08:28:25;;;;;;;18.73;12.83;;;;;;;;;;13149096;22;20431;-89
2023/10/02 08:33:30;;;;;;;16.65;13.90;;;;;;;;;;13112925;22;20363;-89
2023/10/02 08:38:34;;;;;;;17.90;14.50;;;;;;;;;;13112747;22;20425;-90
2023/10/02 08:43:41;;;;;;;19.37;15.23;;;;;;;;;;13112164;22;20397;-88
2023/10/02 08:48:45;;;;;;;17.77;12.70;;;;;;;;;;13112173;22;20409;-90
2023/10/02 08:53:50;;;;;;;18.42;13.05;;;;;;;;;;13112943;22;20356;-90
2023/10/02 09:09:36;;;;;;;20.17;12.75;;;;;;;;;;13112848;22;20715;-90
2023/10/02 09:14:42;;;;;;;18.65;13.50;;;;;;;;;;13111840;22;20359;-90
2023/10/02 09:19:57;;;;;;;17.08;13.50;;;;;;;;;;13113859;22;20379;-89
2023/10/02 09:25:13;;;;;;;18.60;13.65;;;;;;;;;;13116852;22;20363;-90
2023/10/02 09:30:18;;;;;;;16.85;12.80;;;;;;;;;;13116499;22;20729;-90
2023/10/02 09:35:29;;;;;;;16.20;12.45;;;;;;;;;;13115622;22;20359;-90
2023/10/02 09:45:56;;;;;;;19.00;13.40;;;;;;;;;;13137524;22;20375;-90
2023/10/02 09:51:06;;;;;;;14.65;11.40;;;;;;;;;;13114939;22;20360;-90
2023/10/02 09:56:17;;;;;;;15.10;11.63;;;;;;;;;;13123865;22;20360;-90
2023/10/02 10:01:37;;;;;;;17.92;12.48;;;;;;;;;;13114590;22;20363;-90
2023/10/02 10:07:09;;;;;;;12.87;9.93;;;;;;;;;;13115798;22;20428;-90
2023/10/02 10:12:50;;;;;;;12.70;10.43;;;;;;;;;;13115972;22;20819;-89
2023/10/02 10:17:57;;;;;;;13.63;10.07;;;;;;;;;;13122587;22;20367;-89
2023/10/02 10:23:31;;;;;;;14.20;10.00;;;;;;;;;;13114589;22;20379;-90
2023/10/02 10:28:50;;;;;;;14.27;9.70;;;;;;;;;;13113730;22;20383;-90
2023/10/02 10:33:56;;;;;;;14.63;10.32;;;;;;;;;;13114596;22;20895;-90
2023/10/02 10:39:30;;;;;;;14.95;9.82;;;;;;;;;;13114274;22;20444;-90
2023/10/02 10:44:23;;;;;;;11.90;10.10;;;;;;;;;;13114242;22;20417;-90
2023/10/02 10:49:27;;;;;;;10.83;9.03;;;;;;;;;;13127168;22;20431;-90
2023/10/02 10:54:30;;;;;;;12.00;9.87;;;;;;;;;;13114637;22;20367;-90
2023/10/02 10:59:36;;;;;;;13.20;9.70;;;;;;;;;;13115472;22;20347;-90
2023/10/02 11:04:39;;;;;;;11.13;9.82;;;;;;;;;;13113610;22;20889;-90
2023/10/02 11:09:42;;;;;;;14.27;10.35;;;;;;;;;;13114554;22;20379;-91
2023/10/02 11:14:45;;;;;;;13.10;9.63;;;;;;;;;;13113215;22;20420;-90
2023/10/02 11:19:55;;;;;;;10.38;9.27;;;;;;;;;;13120500;22;20401;-90
2023/10/02 11:25:18;;;;;;;12.53;10.33;;;;;;;;;;13125511;22;20901;-90
2023/10/02 11:30:30;;;;;;;11.63;8.77;;;;;;;;;;13078841;22;20383;-90
2023/10/02 11:35:38;;;;;;;12.20;9.18;;;;;;;;;;13104601;22;20367;-91
2023/10/02 11:40:43;;;;;;;14.30;8.93;;;;;;;;;;13106851;22;20367;-90
2023/10/02 11:45:47;;;;;;;12.02;9.07;;;;;;;;;;13102956;22;20375;-90
2023/10/02 11:50:51;;;;;;;10.50;8.47;;;;;;;;;;13104046;22;20672;-91
2023/10/02 11:55:55;;;;;;;11.82;9.65;;;;;;;;;;13105196;22;20379;-90
2023/10/02 12:00:59;;;;;;;12.05;9.30;;;;;;;;;;13105644;22;20846;-91
2023/10/02 12:06:01;;;;;;;11.70;8.80;;;;;;;;;;13105843;22;20375;-90
2023/10/02 12:11:03;;;;;;;13.02;9.52;;;;;;;;;;13106839;22;20363;-91
2023/10/02 12:16:10;;;;;;;11.18;8.80;;;;;;;;;;13104646;22;20370;-90
2023/10/02 12:21:14;;;;;;;12.10;9.35;;;;;;;;;;13104643;22;20818;-91
2023/10/02 12:26:17;;;;;;;12.00;10.60;;;;;;;;;;13109525;22;20363;-90
2023/10/02 12:31:21;;;;;;;13.43;10.57;;;;;;;;;;13111426;22;20359;-90
2023/10/02 12:36:26;;;;;;;10.55;9.30;;;;;;;;;;13111097;22;20428;-91
2023/10/02 12:41:32;;;;;;;11.07;8.83;;;;;;;;;;13106525;22;20908;-88
2023/10/02 12:46:43;;;;;;;11.35;8.55;;;;;;;;;;13108063;22;20375;-89
2023/10/02 12:51:45;;;;;;;11.57;8.43;;;;;;;;;;13110917;22;20417;-91
2023/10/02 12:56:47;;;;;;;10.05;8.52;;;;;;;;;;13114617;22;20409;-91
2023/10/02 13:01:51;;;;;;;13.43;8.68;;;;;;;;;;13119945;22;20363;-91
2023/10/02 13:06:53;;;;;;;9.73;8.33;;;;;;;;;;13127691;22;20379;-91
2023/10/02 13:11:56;;;;;;;10.20;8.20;;;;;;;;;;13113118;22;20409;-90
2023/10/02 13:17:00;;;;;;;9.00;7.50;;;;;;;;;;13115945;22;20738;-91
2023/10/02 13:22:03;;;;;;;10.88;8.40;;;;;;;;;;13136685;22;20351;-91
2023/10/02 13:27:05;;;;;;;9.47;8.30;;;;;;;;;;13113774;22;20436;-91
2023/10/02 13:32:09;;;;;;;9.60;8.13;;;;;;;;;;13111329;22;20416;-91
2023/10/02 13:37:12;;;;;;;9.98;7.88;;;;;;;;;;13111642;22;20367;-91
2023/10/02 13:42:14;;;;;;;8.00;7.18;;;;;;;;;;13115192;22;20379;-91
2023/10/02 13:47:18;;;;;;;8.98;7.20;;;;;;;;;;13107774;22;20409;-91
2023/10/02 13:52:20;;;;;;;9.40;7.47;;;;;;;;;;13116673;22;20367;-91
2023/10/02 13:57:23;;;;;;;8.00;7.20;;;;;;;;;;13113488;22;20363;-92
2023/10/02 14:02:27;;;;;;;8.50;7.60;;;;;;;;;;13112907;22;20355;-91
2023/10/02 14:07:29;;;;;;;8.27;7.40;;;;;;;;;;13115156;22;20375;-91
2023/10/02 14:12:31;;;;;;;9.40;7.47;;;;;;;;;;13137284;22;20383;-91
2023/10/02 14:17:36;;;;;;;8.88;7.57;;;;;;;;;;13114093;22;20371;-91
2023/10/02 14:22:39;;;;;;;11.73;7.22;;;;;;;;;;13114887;22;20355;-92
2023/10/02 14:27:42;;;;;;;9.30;6.95;;;;;;;;;;13115094;22;20379;-90
2023/10/02 14:32:47;;;;;;;11.57;6.88;;;;;;;;;;13114956;22;20352;-91
2023/10/02 14:37:52;;;;;;;9.27;7.35;;;;;;;;;;13110102;22;20371;-89
2023/10/02 14:42:54;;;;;;;9.35;6.88;;;;;;;;;;13113317;22;20371;-90
2023/10/02 14:47:59;;;;;;;8.02;7.10;;;;;;;;;;13110553;22;20379;-90
2023/10/02 14:53:01;;;;;;;8.38;6.78;;;;;;;;;;13113673;22;20363;-91
2023/10/02 14:58:06;;;;;;;8.13;7.13;;;;;;;;;;13113047;22;20385;-91
2023/10/02 15:03:10;;;;;;;8.15;7.35;;;;;;;;;;13111795;22;20886;-91
2023/10/02 15:08:12;;;;;;;8.55;7.55;;;;;;;;;;13112972;22;20413;-91
2023/10/02 15:13:16;;;;;;;10.82;7.15;;;;;;;;;;13116972;22;20448;-90
2023/10/02 15:18:20;;;;;;;8.15;7.35;;;;;;;;;;13141207;22;20396;-91
2023/10/02 15:23:22;;;;;;;8.93;7.27;;;;;;;;;;13122254;22;20676;-91
2023/10/02 15:28:26;;;;;;;9.82;7.30;;;;;;;;;;13116468;22;20383;-91
2023/10/02 15:33:36;;;;;;;10.50;7.10;;;;;;;;;;13110493;22;20359;-91
2023/10/02 15:38:40;;;;;;;10.15;7.72;;;;;;;;;;13126510;22;20359;-91
2023/10/02 15:43:42;;;;;;;9.30;7.80;;;;;;;;;;13111840;22;20366;-90
2023/10/02 15:48:49;;;;;;;9.77;7.47;;;;;;;;;;13108224;22;20420;-90
2023/10/02 15:53:51;;;;;;;9.43;7.57;;;;;;;;;;13110874;22;20728;-91
2023/10/02 15:58:54;;;;;;;8.93;7.20;;;;;;;;;;13106339;22;20378;-88
2023/10/02 16:03:58;;;;;;;10.57;7.83;;;;;;;;;;13104080;22;20491;-88
2023/10/02 16:09:00;;;;;;;9.55;7.47;;;;;;;;;;13097292;22;20641;-89
2023/10/02 16:14:03;;;;;;;8.88;7.20;;;;;;;;;;13101611;22;20396;-88
2023/10/02 16:19:08;;;;;;;9.45;8.10;;;;;;;;;;13094762;22;20912;-88
2023/10/02 16:24:10;;;;;;;10.80;7.70;;;;;;;;;;13100079;22;20645;-88
2023/10/02 16:29:13;;;;;;;10.25;7.95;;;;;;;;;;13103518;22;20499;-89
2023/10/02 16:34:18;;;;;;;11.20;8.75;;;;;;;;;;13108410;22;20749;-88
2023/10/02 16:39:21;;;;;;;12.38;9.18;;;;;;;;;;13109556;22;20864;-89
2023/10/02 16:44:24;;;;;;;10.13;8.70;;;;;;;;;;13109412;22;20447;-89
2023/10/02 16:49:28;;;;;;;11.65;8.45;;;;;;;;;;13109327;22;20445;-88
2023/10/02 16:54:30;;;;;;;12.83;9.90;;;;;;;;;;13111450;22;20359;-84
2023/10/02 16:59:33;;;;;;;14.05;10.07;;;;;;;;;;13107693;22;20375;-89
2023/10/02 17:04:38;;;;;;;14.07;10.45;;;;;;;;;;13110788;22;20902;-88
2023/10/02 17:09:40;;;;;;;15.95;9.98;;;;;;;;;;13133836;22;20371;-88
2023/10/02 17:14:42;;;;;;;13.68;9.98;;;;;;;;;;13111319;22;20396;-89
2023/10/02 17:19:46;;;;;;;18.20;12.30;;;;;;;;;;13123605;22;20408;-89
2023/10/02 17:24:52;;;;;;;14.87;10.70;;;;;;;;;;13150892;22;20910;-88
2023/10/02 17:29:55;;;;;;;10.93;9.83;;;;;;;;;;13119193;22;20703;-88
2023/10/02 17:34:59;;;;;;;13.75;10.25;;;;;;;;;;13109397;22;20371;-88
2023/10/02 17:40:02;;;;;;;14.02;10.57;;;;;;;;;;13120602;22;20372;-86
2023/10/02 17:45:07;;;;;;;14.50;10.98;;;;;;;;;;13103947;22;20448;-87
2023/10/02 17:50:13;;;;;;;16.63;12.15;;;;;;;;;;13103350;22;20387;-87
2023/10/02 17:55:16;;;;;;;20.83;12.20;;;;;;;;;;13101155;22;20749;-85
2023/10/02 18:00:18;;;;;;;17.63;12.20;;;;;;;;;;13102217;22;20371;-86
2023/10/02 18:05:22;;;;;;;15.90;11.30;;;;;;;;;;13097671;22;20397;-85
2023/10/02 18:10:24;;;;;;;15.13;11.17;;;;;;;;;;13099048;22;20410;-85
2023/10/02 18:15:27;;;;;;;14.43;10.45;;;;;;;;;;13102446;22;20420;-85
2023/10/02 18:20:33;;;;;;;16.50;12.27;;;;;;;;;;13098224;22;20375;-85
2023/10/02 18:25:35;;;;;;;14.80;11.03;;;;;;;;;;13105259;22;20371;-85
2023/10/02 18:30:38;;;;;;;13.57;10.27;;;;;;;;;;13100181;22;20383;-86
2023/10/02 18:35:42;;;;;;;13.35;10.32;;;;;;;;;;13102988;22;20436;-87
2023/10/02 18:40:46;;;;;;;11.63;9.63;;;;;;;;;;13106428;22;20782;-87
2023/10/02 18:45:48;;;;;;;13.55;10.05;;;;;;;;;;13104452;22;20750;-85
2023/10/02 18:50:53;;;;;;;11.02;9.48;;;;;;;;;;13101848;22;20379;-88
2023/10/02 18:55:56;;;;;;;12.10;9.65;;;;;;;;;;13118468;22;20425;-86
2023/10/02 19:00:58;;;;;;;12.90;9.52;;;;;;;;;;13101709;22;20847;-85
2023/10/02 19:06:02;;;;;;;13.55;10.35;;;;;;;;;;13102216;22;20420;-86
2023/10/02 19:11:13;;;;;;;14.05;10.38;;;;;;;;;;13099458;22;20445;-86
2023/10/02 19:16:16;;;;;;;15.27;10.20;;;;;;;;;;13100633;22;20848;-85
2023/10/02 19:21:20;;;;;;;14.43;10.45;;;;;;;;;;13101824;22;20854;-87
2023/10/02 19:26:30;;;;;;;12.00;10.10;;;;;;;;;;13102049;22;20428;-88
2023/10/02 19:31:33;;;;;;;13.20;11.23;;;;;;;;;;13098325;22;20371;-87
2023/10/02 19:36:38;;;;;;;13.97;11.03;;;;;;;;;;13104533;22;20955;-88
2023/10/02 19:41:40;;;;;;;14.00;12.07;;;;;;;;;;13101437;22;21034;-87
2023/10/02 19:46:43;;;;;;;21.07;15.37;;;;;;;;;;13101216;22;20456;-89
2023/10/02 19:51:47;;;;;;;22.10;18.05;;;;;;;;;;13100517;22;20498;-87
2023/10/02 19:56:50;;;;;;;28.08;18.08;;;;;;;;;;13105151;22;20432;-86
2023/10/02 20:01:53;;;;;;;23.58;18.60;;;;;;;;;;13102174;22;20413;-88
2023/10/02 20:06:57;;;;;;;27.17;20.33;;;;;;;;;;13116338;22;20896;-87
2023/10/02 20:11:59;;;;;;;28.02;22.98;;;;;;;;;;13123087;22;20821;-88
2023/10/02 20:17:01;;;;;;;28.13;22.95;;;;;;;;;;13101229;22;20700;-87
2023/10/02 20:22:07;;;;;;;30.83;23.50;;;;;;;;;;13101640;22;20436;-86
2023/10/02 20:27:10;;;;;;;32.87;25.03;;;;;;;;;;13106326;22;20367;-87
2023/10/02 20:32:12;;;;;;;32.53;25.43;;;;;;;;;;13101759;22;20379;-88
2023/10/02 20:37:16;;;;;;;29.98;24.05;;;;;;;;;;13101792;22;20924;-87
2023/10/02 20:42:18;;;;;;;35.70;24.67;;;;;;;;;;13113621;22;20363;-87
2023/10/02 20:47:21;;;;;;;33.08;24.83;;;;;;;;;;13100277;22;20379;-88
2023/10/02 20:52:24;;;;;;;31.80;23.50;;;;;;;;;;13100773;22;20386;-87
2023/10/02 20:57:27;;;;;;;33.72;23.67;;;;;;;;;;13101380;22;21162;-87
2023/10/02 21:02:29;;;;;;;31.55;22.25;;;;;;;;;;13099876;22;20371;-88
2023/10/02 21:07:33;;;;;;;33.13;22.23;;;;;;;;;;13099197;22;20363;-85
2023/10/02 21:12:36;;;;;;;34.08;21.92;;;;;;;;;;13105601;22;20379;-85
2023/10/02 21:17:39;;;;;;;27.80;21.73;;;;;;;;;;13109492;22;20389;-87
2023/10/02 21:22:45;;;;;;;30.25;21.83;;;;;;;;;;13112928;22;20355;-87
2023/10/02 21:27:48;;;;;;;31.35;22.95;;;;;;;;;;13111554;22;20416;-87
2023/10/02 21:32:50;;;;;;;28.03;21.33;;;;;;;;;;13111529;22;20909;-87
2023/10/02 21:37:54;;;;;;;28.23;21.20;;;;;;;;;;13135728;22;20393;-86
2023/10/02 21:42:59;;;;;;;28.98;22.25;;;;;;;;;;13112705;22;20896;-88
2023/10/02 21:48:01;;;;;;;27.90;21.85;;;;;;;;;;13112791;22;20363;-87
2023/10/02 21:53:05;;;;;;;28.17;21.60;;;;;;;;;;13112375;22;20379;-87
2023/10/02 21:58:07;;;;;;;31.38;21.92;;;;;;;;;;13112357;22;20903;-87
2023/10/02 22:03:09;;;;;;;28.87;21.40;;;;;;;;;;13112161;22;20476;-88
2023/10/02 22:08:14;;;;;;;28.00;21.67;;;;;;;;;;13113893;22;20413;-87
2023/10/02 22:13:16;;;;;;;28.17;21.77;;;;;;;;;;13111215;22;20412;-87
2023/10/02 22:18:18;;;;;;;29.20;22.37;;;;;;;;;;13111972;22;20363;-87
2023/10/02 22:23:24;;;;;;;30.52;22.27;;;;;;;;;;13112257;22;20421;-87
2023/10/02 22:28:26;;;;;;;33.88;24.00;;;;;;;;;;13111892;22;20391;-87
2023/10/02 22:33:29;;;;;;;33.72;23.13;;;;;;;;;;13111678;22;20375;-87
2023/10/02 22:38:32;;;;;;;29.85;23.23;;;;;;;;;;13112090;22;20359;-87
2023/10/02 22:43:35;;;;;;;31.20;22.90;;;;;;;;;;13111899;22;20653;-87
2023/10/02 22:48:39;;;;;;;32.45;23.50;;;;;;;;;;13111822;22;20367;-86
2023/10/02 22:53:44;;;;;;;30.38;22.92;;;;;;;;;;13106863;22;20363;-87
2023/10/02 22:58:48;;;;;;;27.65;22.42;;;;;;;;;;13109568;22;20831;-87
2023/10/02 23:03:50;;;;;;;30.93;22.57;;;;;;;;;;13131913;22;20424;-87
2023/10/02 23:08:54;;;;;;;28.90;22.70;;;;;;;;;;13132759;22;20355;-87
2023/10/02 23:13:56;;;;;;;31.20;22.13;;;;;;;;;;13111246;22;20424;-88
2023/10/02 23:19:00;;;;;;;31.23;22.77;;;;;;;;;;13110438;22;20847;-87
2023/10/02 23:24:04;;;;;;;30.10;22.77;;;;;;;;;;13111004;22;20360;-87
2023/10/02 23:29:07;;;;;;;29.33;23.40;;;;;;;;;;13110990;22;20371;-87
2023/10/02 23:34:10;;;;;;;29.87;23.07;;;;;;;;;;13110847;22;20835;-87
2023/10/02 23:39:16;;;;;;;33.22;24.27;;;;;;;;;;13131588;22;20355;-87
2023/10/02 23:44:20;;;;;;;28.70;23.35;;;;;;;;;;13109630;22;20412;-86
2023/10/02 23:49:25;;;;;;;30.73;23.38;;;;;;;;;;13111499;22;20375;-86
2023/10/02 23:54:29;;;;;;;32.25;23.02;;;;;;;;;;13111682;22;20893;-87
2023/10/02 23:59:31;;;;;;;31.80;23.40;;;;;;;;;;13111217;22;20351;-88
